Philadelphia International Airport
KPHL : now visible

Airfield :











YOU CAN JOIN US ON...

 
LOGIN :

Register | Disclaimer

   EN    FR    IT 

 









Legend :    VFR   Marginal VFR   IFR   Intensive IFR   Very Intensive IFR
Visi :
Ceiling :
>= 8 km
>= 3000ft
5 to 8 km
1000 to 3000 ft
1500m to 5 km
500 to 1000 ft
800 to 1500m
200 to 500 ft
< 800m
< 200 ft
Symbols :   Thunderstorms  Fog  Heavy snow  Heavy precipitations  Wind > 20 kt






- Airport Elevation : 36 ft
- IATA code : PHL


KPHL - Philadelphia International

CURRENT METAR :
  • 071554Z 23016G19KT 10SM FEW035 SCT150 SCT250 32/23 A3018 RMK AO2 SLP219 T03220228 $

EXPIRED METARs :
  • 071454Z 23015KT 10SM FEW030 SCT150 SCT250 31/23 A3020 RMK AO2 SLP224 T03110228 58004 $
  • 071354Z 24014KT 10SM SCT022 BKN150 BKN260 30/23 A3020 RMK AO2 SLP226 T03000233 $

TAF KPHL
Valid from the 07 at 15:00 until the 08 at 18:00 UTC


071459Z 0715/0818 22010G18KT P6SM SCT040 SCT150
FM080100 21006KT P6SM SCT080
FM081400 23010G18KT P6SM SCT050
KZDC FIR / North America



MET'MAP, your aeronautical weather chart ! - Copyright ORBIFLY December 2007 - Disclaimer

ORBIFLY MET'MAP TEAM :

Programming & Development : Alexandra Zaïnal
Original concept : Baudouin d'Aumeries
Technical & hardware support : Manuel Goepfert
Assistance : Marc-Olivier Méhu




SOURCES & CREDITS :

   NOAA       Earth
Advisory